Time;durP1;ratioP1;P1;durP2;ratioP2;P2;SDS_P1;SDS_P2;PMS_P1;PMS_P2;Temp;Humidity;BMP_temperature;BMP_pressure;BME280_temperature;BME280_humidity;BME280_pressure;Samples;Min_cycle;Max_cycle;Signal;HPM_P1;HPM_P2
2022/12/31 00:01:11;;;;;;;0.95;0.60;;;;;;;-144.47;87.44;52848.16;5007869;28;20053;-69
2022/12/31 00:03:38;;;;;;;0.70;0.63;;;;;;;-144.47;87.53;52887.88;5006268;28;20052;-70
2022/12/31 00:06:26;;;;;;;1.80;0.88;;;;;;;-144.47;87.67;52848.16;5006759;28;20026;-72
2022/12/31 00:08:53;;;;;;;;;;;;;;;-144.47;87.92;52873.97;5004329;28;20049;-69
2022/12/31 00:11:21;;;;;;;0.70;0.52;;;;;;;-144.47;88.06;52870.00;5007372;28;20414;-72
2022/12/31 00:13:47;;;;;;;0.98;0.70;;;;;;;-144.47;88.33;52848.16;5006996;28;20033;-70
2022/12/31 00:16:27;;;;;;;2.90;0.90;;;;;;;-144.47;88.47;52870.00;5008847;28;20032;-70
2022/12/31 00:18:54;;;;;;;2.88;0.77;;;;;;;-144.47;88.59;52883.91;4995909;28;20030;-72
2022/12/31 00:21:21;;;;;;;1.35;0.70;;;;;;;-144.47;88.84;52862.06;5007496;28;20028;-73
2022/12/31 00:23:47;;;;;;;0.82;0.75;;;;;;;-144.47;89.36;52891.84;5007866;28;20049;-68
2022/12/31 00:26:15;;;;;;;1.33;0.70;;;;;;;-144.47;89.79;52870.00;5006902;28;20033;-68
2022/12/31 00:28:41;;;;;;;1.65;0.50;;;;;;;-144.47;90.00;52899.78;5004574;28;20349;-71
2022/12/31 00:31:14;;;;;;;3.72;0.57;;;;;;;-144.47;90.10;52877.94;5006889;28;20096;-68
2022/12/31 00:33:41;;;;;;;0.90;0.60;;;;;;;-144.47;90.45;52875.94;5007261;28;20025;-68
2022/12/31 00:36:14;;;;;;;0.40;0.40;;;;;;;-144.47;90.05;52873.97;5006716;28;20096;-69
2022/12/31 00:38:42;;;;;;;5.97;0.80;;;;;;;-144.47;89.76;52873.97;5005954;28;20037;-71
2022/12/31 00:41:09;;;;;;;1.08;0.63;;;;;;;-144.47;89.81;52879.94;5005409;28;20018;-72
2022/12/31 00:43:34;;;;;;;0.88;0.60;;;;;;;-144.47;89.94;52875.94;5002580;28;20559;-71
2022/12/31 00:46:01;;;;;;;0.75;0.52;;;;;;;-144.47;90.12;52868.00;5007002;28;20100;-70
2022/12/31 00:48:27;;;;;;;0.65;0.65;;;;;;;-144.47;90.22;52858.06;4998728;28;20450;-70
2022/12/31 00:50:53;;;;;;;1.23;0.70;;;;;;;-144.47;90.39;52879.94;5006483;28;20033;-71
2022/12/31 00:53:19;;;;;;;2.22;0.60;;;;;;;-144.47;90.99;52868.00;5006525;28;20460;-68
2022/12/31 00:55:44;;;;;;;0.50;0.50;;;;;;;-144.47;90.89;52893.81;5006557;28;20028;-70
2022/12/31 00:58:10;;;;;;;0.70;0.63;;;;;;;-144.47;91.02;52848.16;5004917;28;20026;-71
2022/12/31 01:00:36;;;;;;;0.82;0.68;;;;;;;-144.47;91.00;52868.00;5011653;28;20060;-69
2022/12/31 01:03:02;;;;;;;1.08;0.80;;;;;;;-144.47;91.58;52873.97;5007334;28;20044;-73
2022/12/31 01:05:29;;;;;;;0.50;0.50;;;;;;;-144.47;91.84;52864.03;5005727;28;20034;-68
2022/12/31 01:07:55;;;;;;;0.90;0.60;;;;;;;-144.47;92.55;52873.97;5005499;28;20090;-71
2022/12/31 01:11:17;;;;;;;1.42;0.70;;;;;;;-144.47;92.81;52856.09;5005395;28;20026;-70
2022/12/31 01:13:06;;;;;;;0.50;0.50;;;;;;;-144.47;92.44;52856.09;5005941;28;20034;-70
2022/12/31 01:15:36;;;;;;;0.75;0.70;;;;;;;-144.47;92.19;52901.78;5007512;28;20017;-69
2022/12/31 01:18:06;;;;;;;1.90;1.27;;;;;;;-144.47;92.19;52873.97;5006683;28;20044;-71
2022/12/31 01:20:37;;;;;;;3.92;2.03;;;;;;;-144.47;92.17;52850.13;5008356;28;20380;-69
2022/12/31 01:23:04;;;;;;;2.67;1.50;;;;;;;-144.47;92.18;52864.03;5010155;28;20121;-68
2022/12/31 01:25:29;;;;;;;2.15;1.30;;;;;;;-144.47;92.00;52864.03;5010025;28;20026;-71
2022/12/31 01:27:54;;;;;;;2.25;1.30;;;;;;;-144.47;92.06;52866.03;5006232;28;20060;-69
2022/12/31 01:30:20;;;;;;;7.25;4.93;;;;;;;-144.47;92.04;52868.00;5009366;28;20061;-68
2022/12/31 01:32:45;;;;;;;2.88;1.70;;;;;;;-144.47;92.19;52875.94;5010052;28;20105;-68
2022/12/31 01:35:10;;;;;;;1.40;0.90;;;;;;;-144.47;92.04;52875.94;5009720;28;20067;-68
2022/12/31 01:37:36;;;;;;;1.02;0.80;;;;;;;-144.47;92.16;52877.94;5006979;28;20063;-70
2022/12/31 01:40:01;;;;;;;0.85;0.70;;;;;;;-144.47;92.32;52856.09;5007056;28;20140;-71
2022/12/31 01:42:26;;;;;;;1.42;1.00;;;;;;;-144.47;92.29;52862.06;5005864;28;20124;-71
2022/12/31 01:44:54;;;;;;;0.75;0.75;;;;;;;-144.47;92.27;52873.97;5010028;28;20061;-70
2022/12/31 01:47:40;;;;;;;1.85;0.85;;;;;;;-144.47;92.49;52887.88;5002821;28;20026;-68
2022/12/31 01:50:19;;;;;;;0.82;0.75;;;;;;;-144.47;92.14;52883.91;5009679;28;20120;-72
2022/12/31 01:52:49;;;;;;;0.88;0.52;;;;;;;-144.47;92.17;52866.03;5009280;28;20025;-69
2022/12/31 01:55:14;;;;;;;0.50;0.50;;;;;;;-144.47;91.98;52871.97;5009687;28;20355;-70
2022/12/31 01:57:41;;;;;;;1.02;0.57;;;;;;;-144.47;92.02;52856.09;5008643;28;20440;-70
2022/12/31 02:00:08;;;;;;;2.13;0.68;;;;;;;-144.47;91.91;52885.88;5009737;28;20053;-69
2022/12/31 02:02:34;;;;;;;0.40;0.40;;;;;;;-144.47;91.71;52873.97;5009817;28;20018;-69
2022/12/31 02:05:04;;;;;;;0.52;0.47;;;;;;;-144.47;92.09;52883.91;5008419;28;20037;-71
2022/12/31 02:07:29;;;;;;;0.75;0.63;;;;;;;-144.47;92.26;52842.19;5008176;28;20028;-72
2022/12/31 02:09:55;;;;;;;0.57;0.52;;;;;;;-144.47;92.55;52870.00;5009831;28;20030;-67
2022/12/31 02:12:21;;;;;;;1.15;0.65;;;;;;;-144.47;92.83;52877.94;5009924;28;20104;-73
2022/12/31 02:14:50;;;;;;;0.57;0.57;;;;;;;-144.47;92.82;52864.03;5010041;28;20037;-71
2022/12/31 02:17:22;;;;;;;0.82;0.60;;;;;;;-144.47;92.88;52862.06;4997575;28;20026;-68
2022/12/31 02:20:06;;;;;;;0.63;0.60;;;;;;;-144.47;93.16;52832.25;5008958;28;20033;-71
2022/12/31 02:23:02;;;;;;;0.50;0.50;;;;;;;-144.47;93.79;52864.03;5006147;28;20040;-68
2022/12/31 02:25:36;;;;;;;0.75;0.60;;;;;;;-144.47;93.73;52870.00;4998442;28;20060;-71
2022/12/31 02:28:37;;;;;;;1.23;0.60;;;;;;;-144.47;93.58;52848.16;5008032;28;20286;-71
2022/12/31 02:31:10;;;;;;;0.85;0.50;;;;;;;-144.47;93.91;52852.13;5006523;28;20041;-71
2022/12/31 02:33:43;;;;;;;1.15;0.65;;;;;;;-144.47;93.71;52848.16;5008892;28;20033;-71
2022/12/31 02:36:15;;;;;;;1.48;0.85;;;;;;;-144.47;93.73;52844.19;5008288;28;20034;-71
2022/12/31 02:38:45;;;;;;;0.50;0.50;;;;;;;-144.47;93.85;52844.19;5009006;28;20097;-68
2022/12/31 02:41:48;;;;;;;0.40;0.40;;;;;;;-144.47;93.78;52881.91;5008992;28;20017;-69
2022/12/31 02:43:58;;;;;;;1.48;0.65;;;;;;;-144.47;93.69;52848.16;5007580;28;20057;-71
2022/12/31 02:46:47;;;;;;;1.08;0.60;;;;;;;-144.47;93.42;52877.94;5007245;28;20029;-69
2022/12/31 02:49:22;;;;;;;1.15;0.60;;;;;;;-144.47;93.28;52842.19;5008147;28;20499;-71
2022/12/31 02:51:55;;;;;;;2.47;0.90;;;;;;;-144.47;93.06;52856.09;5008243;28;20074;-71
2022/12/31 02:54:29;;;;;;;1.67;0.90;;;;;;;-144.47;92.73;52877.94;5008672;28;20068;-73
2022/12/31 02:56:54;;;;;;;1.80;0.70;;;;;;;-144.47;92.76;52834.25;5007755;28;20034;-71
2022/12/31 03:02:39;;;;;;;2.72;0.55;;;;;;;-144.47;93.16;52871.97;5008747;28;20080;-71
2022/12/31 03:05:05;;;;;;;1.25;0.70;;;;;;;-144.47;93.63;52873.97;5007967;28;20112;-72
2022/12/31 03:07:31;;;;;;;0.50;0.50;;;;;;;-144.47;94.11;52862.06;5007448;28;20101;-69
2022/12/31 03:09:59;;;;;;;0.40;0.40;;;;;;;-144.47;94.43;52858.06;5009582;28;20068;-68
2022/12/31 03:12:46;;;;;;;0.95;0.60;;;;;;;-144.47;94.05;52838.22;5007929;28;20040;-71
2022/12/31 03:15:30;;;;;;;1.95;0.63;;;;;;;-144.47;94.09;52868.00;5009015;28;20032;-71
2022/12/31 03:18:02;;;;;;;0.45;0.40;;;;;;;-144.47;94.14;52844.19;5008309;28;20045;-69
2022/12/31 03:23:24;;;;;;;1.10;0.60;;;;;;;-144.47;94.13;52881.91;5006538;28;20064;-68
2022/12/31 03:25:50;;;;;;;3.00;0.82;;;;;;;-144.47;94.40;52868.00;5009370;28;20030;-70
2022/12/31 03:28:18;;;;;;;2.13;1.00;;;;;;;-144.47;94.60;52877.94;5007041;28;20033;-73
2022/12/31 03:30:47;;;;;;;2.28;0.80;;;;;;;-144.47;94.60;52862.06;5007469;28;20287;-72
2022/12/31 03:33:13;;;;;;;1.67;0.88;;;;;;;-144.47;94.92;52870.00;5007774;28;20121;-72
2022/12/31 03:35:41;;;;;;;1.38;0.70;;;;;;;-144.47;95.67;52885.88;5008131;28;20056;-69
2022/12/31 03:38:07;;;;;;;0.45;0.45;;;;;;;-144.47;95.78;52850.13;5006824;28;20030;-72
2022/12/31 03:40:41;;;;;;;0.35;0.35;;;;;;;-144.47;95.73;52856.09;5008324;28;20030;-70
2022/12/31 03:43:06;;;;;;;0.90;0.57;;;;;;;-144.47;95.93;52840.19;5007208;28;20030;-71
2022/12/31 03:45:33;;;;;;;1.10;0.40;;;;;;;-144.47;95.63;52844.19;5008618;28;20189;-69
2022/12/31 03:48:02;;;;;;;0.50;0.50;;;;;;;-144.47;95.97;52844.19;5005902;28;20155;-69
2022/12/31 03:50:28;;;;;;;0.73;0.50;;;;;;;-144.47;95.63;52846.16;5008145;28;20034;-70
2022/12/31 03:52:53;;;;;;;0.40;0.40;;;;;;;-144.47;95.46;52844.19;5011523;28;20021;-68
2022/12/31 03:55:19;;;;;;;0.63;0.40;;;;;;;-144.47;95.10;52854.09;5012731;28;20029;-71
2022/12/31 03:57:45;;;;;;;1.45;0.60;;;;;;;-144.47;95.12;52842.19;5008228;28;20033;-71
2022/12/31 04:00:13;;;;;;;0.52;0.52;;;;;;;-144.47;95.05;52828.28;5008003;28;20100;-68
2022/12/31 04:02:39;;;;;;;0.98;0.60;;;;;;;-144.47;95.10;52860.06;5007900;28;20018;-72
2022/12/31 04:05:06;;;;;;;0.75;0.60;;;;;;;-144.47;95.09;52848.16;5019982;23;21329;-68
2022/12/31 04:07:31;;;;;;;0.73;0.40;;;;;;;-144.47;95.07;52844.19;5007915;28;20021;-66
2022/12/31 04:09:57;;;;;;;0.38;0.38;;;;;;;-144.47;94.91;52854.09;5009995;28;20028;-69
2022/12/31 04:12:22;;;;;;;0.50;0.50;;;;;;;-144.47;95.25;52846.16;5008954;28;20037;-69
2022/12/31 04:14:47;;;;;;;0.52;0.47;;;;;;;-144.47;95.54;52870.00;5009794;28;20040;-68
2022/12/31 04:17:13;;;;;;;0.40;0.40;;;;;;;-144.47;95.40;52836.22;5008082;28;20113;-68
2022/12/31 04:19:38;;;;;;;0.70;0.57;;;;;;;-144.47;95.36;52848.16;5010215;28;20026;-67
2022/12/31 04:22:04;;;;;;;0.52;0.52;;;;;;;-144.47;96.04;52871.97;5010489;28;20630;-69
2022/12/31 04:24:30;;;;;;;0.50;0.50;;;;;;;-144.47;95.73;52877.94;5011075;28;20046;-68
2022/12/31 04:26:55;;;;;;;1.63;0.55;;;;;;;-144.47;95.55;52871.97;5010050;28;20103;-69
2022/12/31 04:29:21;;;;;;;0.55;0.45;;;;;;;-144.47;95.27;52846.16;5009973;28;20026;-68
2022/12/31 04:31:46;;;;;;;0.40;0.40;;;;;;;-144.47;95.07;52862.06;5009984;28;20026;-68
2022/12/31 04:34:12;;;;;;;0.45;0.40;;;;;;;-144.47;94.85;52856.09;5009669;28;20042;-70
2022/12/31 04:36:37;;;;;;;0.40;0.40;;;;;;;-144.47;94.93;52850.13;5008563;28;20437;-70
2022/12/31 04:39:03;;;;;;;0.47;0.47;;;;;;;-144.47;94.73;52830.28;5008548;28;20025;-68
2022/12/31 04:41:28;;;;;;;0.50;0.43;;;;;;;-144.47;94.50;52828.28;5003809;28;20480;-66
2022/12/31 04:43:56;;;;;;;0.50;0.50;;;;;;;-144.47;94.67;52830.28;5008983;28;20064;-71
2022/12/31 04:46:24;;;;;;;1.75;0.65;;;;;;;-144.47;94.43;52836.22;5011220;28;20038;-70
2022/12/31 04:48:50;;;;;;;0.90;0.60;;;;;;;-144.47;94.39;52830.28;5009816;28;20022;-67
2022/12/31 04:51:16;;;;;;;0.50;0.50;;;;;;;-144.47;94.10;52828.28;5012269;28;20099;-68
2022/12/31 04:53:41;;;;;;;0.50;0.50;;;;;;;-144.47;93.96;52812.41;5013386;28;20117;-70
2022/12/31 04:56:07;;;;;;;0.95;0.57;;;;;;;-144.47;94.10;52852.13;5014309;28;20034;-69
2022/12/31 04:58:34;;;;;;;0.80;0.63;;;;;;;-144.47;94.33;52844.19;5012467;28;20033;-70
2022/12/31 05:00:59;;;;;;;0.68;0.43;;;;;;;-144.47;94.05;52816.38;5014359;28;20026;-68
2022/12/31 05:03:26;;;;;;;0.40;0.40;;;;;;;-144.47;93.74;52864.03;5013944;28;20036;-69
2022/12/31 05:05:52;;;;;;;0.73;0.50;;;;;;;-144.47;93.73;52814.38;5014830;28;20056;-68
2022/12/31 05:08:18;;;;;;;2.83;0.65;;;;;;;-144.47;93.42;52848.16;5013366;28;20045;-66
2022/12/31 05:10:46;;;;;;;0.43;0.40;;;;;;;-144.47;93.21;52879.94;5015014;28;20391;-69
2022/12/31 05:13:12;;;;;;;1.27;0.60;;;;;;;-144.47;93.39;52842.19;5013199;28;20135;-68
2022/12/31 05:15:38;;;;;;;0.57;0.45;;;;;;;-144.47;93.56;52842.19;5014847;28;20626;-69
2022/12/31 05:18:03;;;;;;;0.50;0.50;;;;;;;-144.47;93.67;52852.13;5013194;28;20021;-70
2022/12/31 05:20:29;;;;;;;0.47;0.40;;;;;;;-144.47;93.17;52842.19;5013571;28;20097;-70
2022/12/31 05:22:54;;;;;;;1.25;0.60;;;;;;;-144.47;93.21;52820.34;5012002;28;20393;-69
2022/12/31 05:25:19;;;;;;;0.60;0.52;;;;;;;-144.47;92.83;52838.22;5013147;28;20684;-68
2022/12/31 05:27:45;;;;;;;0.68;0.50;;;;;;;-144.47;92.62;52856.09;5011449;28;20022;-67
2022/12/31 05:30:11;;;;;;;0.50;0.50;;;;;;;-144.47;92.52;52864.03;5013506;28;20033;-67
2022/12/31 05:32:37;;;;;;;0.52;0.40;;;;;;;-144.47;92.74;52850.13;5014349;28;20022;-69
2022/12/31 05:35:03;;;;;;;0.68;0.60;;;;;;;-144.47;92.54;52830.28;5012620;28;20087;-68
2022/12/31 05:37:29;;;;;;;0.45;0.45;;;;;;;-144.47;92.30;52842.19;5012006;28;20030;-69
2022/12/31 05:39:55;;;;;;;0.70;0.47;;;;;;;-144.47;92.13;52836.22;5009925;28;20033;-69
2022/12/31 05:42:20;;;;;;;0.77;0.50;;;;;;;-144.47;92.02;52824.31;5012274;28;20077;-68
2022/12/31 05:44:46;;;;;;;0.40;0.40;;;;;;;-144.47;91.86;52836.22;5012978;28;20560;-70
2022/12/31 05:47:11;;;;;;;0.40;0.40;;;;;;;-144.47;92.07;52832.25;5010595;28;20042;-68
2022/12/31 05:49:37;;;;;;;0.40;0.40;;;;;;;-144.47;91.86;52818.34;5011885;28;20022;-66
2022/12/31 05:52:02;;;;;;;0.50;0.50;;;;;;;-144.47;91.71;52846.16;5013423;28;20133;-69
2022/12/31 05:54:28;;;;;;;0.30;0.30;;;;;;;-144.47;91.79;52810.41;5013145;28;20029;-67
2022/12/31 05:56:53;;;;;;;1.95;0.50;;;;;;;-144.47;92.02;52808.44;5012199;28;20092;-69
2022/12/31 05:59:18;;;;;;;0.30;0.30;;;;;;;-144.47;92.04;52832.25;5012894;28;20026;-67
2022/12/31 06:01:44;;;;;;;1.95;0.50;;;;;;;-144.47;91.84;52812.41;5013215;28;20026;-68
2022/12/31 06:04:09;;;;;;;0.30;0.30;;;;;;;-144.47;91.35;52834.25;5011849;28;20025;-69
2022/12/31 06:06:34;;;;;;;1.45;0.35;;;;;;;-144.47;91.49;52830.28;5011530;28;20033;-68
2022/12/31 06:09:00;;;;;;;0.35;0.30;;;;;;;-144.47;91.64;52842.19;5011655;28;20171;-68
2022/12/31 06:11:25;;;;;;;1.50;0.35;;;;;;;-144.47;91.22;52812.41;5012661;28;20022;-68
2022/12/31 06:13:51;;;;;;;0.98;0.40;;;;;;;-144.47;90.91;52816.38;5012027;28;20530;-70
2022/12/31 06:16:16;;;;;;;0.30;0.30;;;;;;;-144.47;90.94;52840.19;5012448;28;20164;-68
2022/12/31 06:18:41;;;;;;;0.55;0.50;;;;;;;-144.47;90.39;52828.28;5014209;28;20030;-69
2022/12/31 06:21:07;;;;;;;0.43;0.30;;;;;;;-144.47;90.13;52822.31;5014752;28;20108;-66
2022/12/31 06:23:32;;;;;;;0.30;0.30;;;;;;;-144.47;89.64;52856.09;5014124;28;20029;-69
2022/12/31 06:26:04;;;;;;;0.88;0.60;;;;;;;-144.47;89.55;52816.38;5014520;28;20038;-68
2022/12/31 06:28:30;;;;;;;0.65;0.47;;;;;;;-144.47;88.96;52822.31;5012682;28;20025;-68
2022/12/31 06:31:03;;;;;;;0.68;0.40;;;;;;;-144.47;88.41;52834.25;5014996;28;20048;-68
2022/12/31 06:33:29;;;;;;;0.70;0.68;;;;;;;-144.47;88.14;52824.31;5001350;28;20022;-67
2022/12/31 06:35:56;;;;;;;0.73;0.50;;;;;;;-144.47;88.11;52828.28;5013602;28;20390;-69
2022/12/31 06:38:22;;;;;;;0.50;0.45;;;;;;;-144.47;88.04;52840.19;5012044;28;20483;-69
2022/12/31 06:40:48;;;;;;;0.35;0.35;;;;;;;-144.47;87.80;52822.31;5012878;28;20026;-69
2022/12/31 06:43:13;;;;;;;0.85;0.50;;;;;;;-144.47;87.53;52822.31;5011105;28;20129;-68
2022/12/31 06:45:39;;;;;;;0.63;0.50;;;;;;;-144.47;87.28;52830.28;5011221;28;20084;-67
2022/12/31 06:48:05;;;;;;;0.40;0.40;;;;;;;-144.47;86.94;52808.44;5010886;28;20052;-69
2022/12/31 06:50:30;;;;;;;2.08;0.50;;;;;;;-144.47;86.54;52808.44;5012377;28;20636;-67
2022/12/31 06:52:55;;;;;;;0.77;0.40;;;;;;;-144.47;86.50;52840.19;5012600;28;20101;-70
2022/12/31 06:55:21;;;;;;;0.93;0.40;;;;;;;-144.47;86.66;52812.41;5013280;28;20113;-70
2022/12/31 06:57:47;;;;;;;3.03;0.60;;;;;;;-144.47;86.25;52830.28;5011377;28;20028;-69
2022/12/31 07:00:13;;;;;;;0.50;0.50;;;;;;;-144.47;86.00;52816.38;5012918;28;20036;-70
2022/12/31 07:02:53;;;;;;;3.90;0.60;;;;;;;-144.47;85.54;52856.09;5011190;28;20033;-67
2022/12/31 07:05:37;;;;;;;1.20;0.50;;;;;;;-144.47;85.00;52826.31;5010250;28;20038;-67
2022/12/31 07:08:11;;;;;;;1.17;0.80;;;;;;;-144.47;85.00;52806.44;5008811;28;20038;-70
2022/12/31 07:10:58;;;;;;;0.73;0.60;;;;;;;-144.47;84.76;52816.38;5011337;28;20037;-69
2022/12/31 07:13:39;;;;;;;2.55;0.57;;;;;;;-144.47;84.08;52818.34;5010458;28;20049;-70
2022/12/31 07:16:20;;;;;;;0.90;0.70;;;;;;;-144.47;83.55;52824.31;5011010;28;20029;-67
2022/12/31 07:19:16;;;;;;;1.33;0.60;;;;;;;-144.47;83.02;52836.22;5011113;28;20053;-69
2022/12/31 07:21:42;;;;;;;0.80;0.57;;;;;;;-144.47;83.04;52832.25;5010388;28;20018;-67
2022/12/31 07:24:09;;;;;;;0.47;0.47;;;;;;;-144.47;82.71;52820.34;5010736;28;20022;-70
2022/12/31 07:26:37;;;;;;;1.10;0.60;;;;;;;-144.47;82.79;52826.31;5010988;28;20038;-68
2022/12/31 07:29:27;;;;;;;0.80;0.50;;;;;;;-144.47;83.07;52836.22;5010754;28;20029;-67
2022/12/31 07:32:17;;;;;;;0.60;0.60;;;;;;;-144.47;83.30;52806.44;5011244;28;20550;-70
2022/12/31 07:34:56;;;;;;;0.88;0.57;;;;;;;-144.47;83.35;52804.44;5010269;28;20140;-71
2022/12/31 07:37:33;;;;;;;2.83;0.65;;;;;;;-144.47;83.56;52814.38;5008605;28;20109;-68
2022/12/31 07:40:28;;;;;;;2.78;0.68;;;;;;;-144.47;83.32;52804.44;5007845;28;20055;-70
2022/12/31 07:43:15;;;;;;;2.95;0.82;;;;;;;-144.47;83.28;52820.34;5009261;28;20049;-71
2022/12/31 07:45:50;;;;;;;1.08;0.88;;;;;;;-144.47;83.30;52810.41;5008203;28;20025;-69
2022/12/31 07:48:27;;;;;;;1.83;0.80;;;;;;;-144.47;83.07;52830.28;5020378;28;20034;-70
2022/12/31 07:50:54;;;;;;;1.30;0.50;;;;;;;-144.47;82.85;52794.53;5010252;28;20025;-66
2022/12/31 07:53:21;;;;;;;1.35;0.73;;;;;;;-144.47;82.69;52816.38;5009570;28;20427;-70
2022/12/31 07:55:55;;;;;;;0.75;0.63;;;;;;;-144.47;82.52;52828.28;5008613;28;20029;-69
2022/12/31 07:58:44;;;;;;;0.98;0.60;;;;;;;-144.47;82.77;52804.44;5008087;28;20443;-70
2022/12/31 08:01:13;;;;;;;7.55;2.05;;;;;;;-144.47;82.54;52800.47;4999255;28;20052;-71
2022/12/31 08:03:57;;;;;;;2.25;0.70;;;;;;;-144.47;82.69;52806.44;4991535;28;20033;-70
2022/12/31 08:06:28;;;;;;;0.90;0.60;;;;;;;-144.47;82.66;52798.50;5004260;28;20060;-68
2022/12/31 08:09:14;;;;;;;1.25;0.75;;;;;;;-144.47;82.52;52806.44;5005747;28;20026;-70
2022/12/31 08:11:45;;;;;;;0.43;0.43;;;;;;;-144.47;82.20;52792.53;5008258;28;20032;-71
2022/12/31 08:14:13;;;;;;;1.42;0.73;;;;;;;-144.47;82.27;52800.47;5007808;28;20116;-69
2022/12/31 08:16:39;;;;;;;0.60;0.60;;;;;;;-144.47;82.45;52810.41;5003341;28;20571;-68
2022/12/31 08:19:05;;;;;;;2.45;0.82;;;;;;;-144.47;82.30;52786.56;5009353;28;20093;-71
2022/12/31 08:21:55;;;;;;;0.80;0.70;;;;;;;-144.47;82.34;52810.41;5009421;28;20472;-70
2022/12/31 08:24:34;;;;;;;1.63;0.70;;;;;;;-144.47;82.30;52818.34;5005913;28;20033;-69
2022/12/31 08:27:20;;;;;;;;;;;;;;;-144.47;82.26;52796.50;5008943;28;20034;-69
2022/12/31 08:30:04;;;;;;;1.52;0.63;;;;;;;-144.47;82.14;52784.59;5007276;28;19913;-70
2022/12/31 08:32:42;;;;;;;0.85;0.60;;;;;;;-144.47;81.89;52822.31;5013466;28;20041;-70
2022/12/31 08:35:16;;;;;;;0.95;0.70;;;;;;;-144.47;81.73;52826.31;5006191;28;20697;-69
2022/12/31 08:37:47;;;;;;;1.08;0.60;;;;;;;-144.47;81.60;52816.38;5008358;28;20048;-69
2022/12/31 08:40:44;;;;;;;0.75;0.60;;;;;;;-144.47;81.50;52804.44;5012136;28;20376;-70
2022/12/31 08:43:15;;;;;;;2.53;0.57;;;;;;;-144.47;81.35;52810.41;4991479;28;20548;-70
2022/12/31 08:45:47;;;;;;;0.95;0.60;;;;;;;-144.47;81.20;52810.41;5012730;28;20076;-70
2022/12/31 08:48:33;;;;;;;3.53;0.90;;;;;;;-144.47;81.12;52816.38;5009588;28;20060;-68
2022/12/31 08:50:58;;;;;;;1.80;0.90;;;;;;;-144.47;81.12;52824.31;5003043;28;20088;-72
2022/12/31 08:53:24;;;;;;;2.25;0.60;;;;;;;-144.47;81.00;52782.59;5013291;28;20451;-70
2022/12/31 08:56:01;;;;;;;4.50;1.00;;;;;;;-144.47;80.95;52782.59;5013298;28;20041;-71
2022/12/31 08:59:17;;;;;;;1.98;0.80;;;;;;;-144.47;80.89;52820.34;5011499;28;20022;-67
2022/12/31 09:02:16;;;;;;;1.98;0.80;;;;;;;-144.47;80.75;52846.16;4955282;28;20027;-70
2022/12/31 09:04:57;;;;;;;0.70;0.70;;;;;;;-144.47;80.69;52816.38;4970865;28;20035;-70
2022/12/31 09:07:34;;;;;;;1.35;0.70;;;;;;;-144.47;80.58;52800.47;4997647;28;20038;-69
2022/12/31 09:10:13;;;;;;;2.95;0.70;;;;;;;-144.47;80.31;52778.63;5012159;28;20033;-69
2022/12/31 09:13:17;;;;;;;2.03;1.00;;;;;;;-144.47;80.39;52794.53;5011935;28;20400;-69
2022/12/31 09:15:51;;;;;;;2.88;0.77;;;;;;;-144.47;80.33;52786.56;5010769;28;20037;-71
2022/12/31 09:18:17;;;;;;;1.30;0.70;;;;;;;-144.47;80.28;52840.19;5009204;28;20021;-70
2022/12/31 09:20:42;;;;;;;2.10;0.75;;;;;;;-144.47;80.03;52800.47;5010904;28;20026;-67
2022/12/31 09:23:08;;;;;;;7.03;0.70;;;;;;;-144.47;79.68;52824.31;5011843;28;20064;-71
2022/12/31 09:25:41;;;;;;;0.90;0.68;;;;;;;-144.47;79.55;52804.44;5012764;28;20113;-71
2022/12/31 09:28:09;;;;;;;2.03;0.70;;;;;;;-144.47;78.92;52802.47;5008819;28;20029;-70
2022/12/31 09:30:45;;;;;;;2.57;1.00;;;;;;;-144.47;78.11;52800.47;5012965;28;20379;-69
2022/12/31 09:33:22;;;;;;;8.20;1.05;;;;;;;-144.47;78.08;52816.38;5012649;28;20026;-68
2022/12/31 09:35:57;;;;;;;1.98;0.90;;;;;;;-144.47;77.13;52810.41;5013132;28;20030;-71
2022/12/31 09:38:34;;;;;;;1.42;0.65;;;;;;;-144.47;76.92;52792.53;5011423;28;20152;-72
2022/12/31 09:40:59;;;;;;;2.20;0.80;;;;;;;-144.47;76.44;52788.56;5011271;28;20022;-70
2022/12/31 09:43:47;;;;;;;3.90;0.70;;;;;;;-144.47;75.91;52800.47;5009563;28;20491;-71
2022/12/31 09:46:27;;;;;;;1.38;0.70;;;;;;;-144.47;75.51;52820.34;5011154;28;20021;-69
2022/12/31 09:49:28;;;;;;;2.60;0.68;;;;;;;-144.47;75.44;52808.44;5006555;28;20095;-69
2022/12/31 09:52:17;;;;;;;1.20;0.70;;;;;;;-144.47;75.14;52802.47;5010057;28;20084;-70
2022/12/31 09:55:16;;;;;;;1.50;0.70;;;;;;;-144.47;75.10;52796.50;5011621;28;20519;-69
2022/12/31 09:57:54;;;;;;;5.38;1.23;;;;;;;-144.47;74.94;52784.59;5009674;28;20030;-69
2022/12/31 10:00:27;;;;;;;6.90;0.80;;;;;;;-144.47;74.00;52770.69;5010183;28;20021;-70
2022/12/31 10:03:16;;;;;;;2.95;0.70;;;;;;;-144.47;73.83;52768.69;5007553;28;20042;-71
2022/12/31 10:06:07;;;;;;;1.42;0.77;;;;;;;-144.47;73.52;52790.56;5031461;23;20046;-68
2022/12/31 10:09:03;;;;;;;1.52;0.57;;;;;;;-144.47;73.25;52786.56;5008882;28;20029;-70
2022/12/31 10:11:53;;;;;;;1.67;0.70;;;;;;;-144.47;73.29;52816.38;5005714;28;20030;-69
2022/12/31 10:14:57;;;;;;;3.67;0.82;;;;;;;-144.47;72.55;52804.44;5010709;28;20029;-71
2022/12/31 10:17:34;;;;;;;3.13;0.70;;;;;;;-144.47;72.36;52796.50;4986158;28;20066;-71
2022/12/31 10:20:24;;;;;;;2.40;0.70;;;;;;;-144.47;72.59;52784.59;4991852;28;20034;-69
2022/12/31 10:23:06;;;;;;;3.47;0.80;;;;;;;-144.47;72.35;52806.44;4989830;28;20122;-71
2022/12/31 10:26:16;;;;;;;1.70;0.77;;;;;;;-144.47;72.06;52796.50;4996032;28;20038;-72
2022/12/31 10:28:57;;;;;;;3.10;0.57;;;;;;;-144.47;71.77;52792.53;4991766;28;20054;-72
2022/12/31 10:31:43;;;;;;;1.10;0.60;;;;;;;-144.47;71.28;52758.78;4989342;28;20080;-71
2022/12/31 10:34:15;;;;;;;2.42;0.65;;;;;;;-144.47;70.69;52756.78;4991066;28;20037;-72
2022/12/31 10:36:55;;;;;;;1.58;0.80;;;;;;;-144.47;70.56;52802.47;4985498;28;20032;-74
2022/12/31 10:39:33;;;;;;;1.55;0.60;;;;;;;-144.47;70.84;52810.41;4995149;28;20029;-73
2022/12/31 10:42:17;;;;;;;2.45;0.77;;;;;;;-144.47;70.58;52778.63;4991001;28;20720;-72
2022/12/31 10:45:13;;;;;;;1.45;0.88;;;;;;;-144.47;69.82;52766.72;4989316;28;20565;-69
2022/12/31 10:48:11;;;;;;;6.18;0.88;;;;;;;-144.47;70.03;52774.66;4989819;28;20038;-73
2022/12/31 10:50:43;;;;;;;;;;;;;;;-144.47;70.24;52778.63;4995416;28;20607;-71
2022/12/31 10:53:40;;;;;;;3.10;0.73;;;;;;;-144.47;70.09;52780.63;4993026;28;19953;-71
2022/12/31 10:56:37;;;;;;;6.55;0.90;;;;;;;-144.47;70.05;52774.66;4989356;28;20157;-70
2022/12/31 10:59:22;;;;;;;1.77;0.80;;;;;;;-144.47;70.03;52798.50;4988552;28;20090;-72
2022/12/31 11:02:03;;;;;;;5.78;0.70;;;;;;;-144.47;69.82;52786.56;4988560;28;20462;-72
2022/12/31 11:04:37;;;;;;;3.38;1.20;;;;;;;-144.47;70.08;52778.63;4987866;28;20037;-73
2022/12/31 11:07:24;;;;;;;3.88;0.80;;;;;;;-144.47;70.36;52768.69;4988270;28;20087;-69
2022/12/31 11:10:00;;;;;;;1.33;0.73;;;;;;;-144.47;70.72;52780.63;4985118;28;20030;-71
2022/12/31 11:12:53;;;;;;;1.10;0.80;;;;;;;-144.47;70.92;52788.56;4989646;28;20030;-73
2022/12/31 11:15:21;;;;;;;1.63;0.60;;;;;;;-144.47;71.10;52772.69;4989300;28;20543;-73
2022/12/31 11:18:21;;;;;;;1.50;0.70;;;;;;;-144.47;71.36;52772.69;4984424;28;20065;-71
2022/12/31 11:20:59;;;;;;;0.90;0.60;;;;;;;-144.47;71.18;52792.53;4988549;28;20026;-69
2022/12/31 11:24:01;;;;;;;1.00;0.80;;;;;;;-144.47;71.37;52790.56;4991126;28;20064;-72
2022/12/31 11:26:35;;;;;;;3.55;0.90;;;;;;;-144.47;71.24;52780.63;4989089;28;20200;-72
2022/12/31 11:29:22;;;;;;;4.25;1.00;;;;;;;-144.47;71.21;52786.56;4986737;28;20029;-70
2022/12/31 11:32:03;;;;;;;3.03;1.02;;;;;;;-144.47;71.08;52798.50;4985739;28;20542;-70
2022/12/31 11:34:37;;;;;;;4.65;1.13;;;;;;;-144.47;71.04;52790.56;4988054;28;20117;-70
2022/12/31 11:37:26;;;;;;;1.83;0.82;;;;;;;-144.47;70.81;52784.59;4989172;28;20589;-70
2022/12/31 11:40:26;;;;;;;1.48;0.90;;;;;;;-144.47;70.70;52778.63;4985355;28;20022;-69
2022/12/31 11:42:58;;;;;;;2.50;0.90;;;;;;;-144.47;71.10;52774.66;4996649;28;20092;-72
2022/12/31 11:46:00;;;;;;;3.10;0.98;;;;;;;-144.47;71.22;52812.41;4991119;28;20121;-71
2022/12/31 11:48:45;;;;;;;2.63;1.08;;;;;;;-144.47;71.14;52756.78;4984785;28;20026;-69
2022/12/31 11:51:31;;;;;;;1.85;1.00;;;;;;;-144.47;71.31;52778.63;4988911;28;20365;-72